Time;durP1;ratioP1;P1;durP2;ratioP2;P2;SDS_P1;SDS_P2;PMS_P1;PMS_P2;Temp;Humidity;BMP_temperature;BMP_pressure;BME280_temperature;BME280_humidity;BME280_pressure;Samples;Min_cycle;Max_cycle;Signal;HPM_P1;HPM_P2
2022/02/28 00:02:24;;;;;;;3.83;2.63;;;;;;;;;;5060033;28;20428;-54
2022/02/28 00:04:49;;;;;;;2.25;2.05;;;;;;;;;;5054137;28;20082;-50
2022/02/28 00:07:16;;;;;;;3.95;3.05;;;;;;;;;;5054364;28;20566;-52
2022/02/28 00:09:41;;;;;;;3.22;2.92;;;;;;;;;;5054035;28;20114;-51
2022/02/28 00:12:07;;;;;;;2.85;2.50;;;;;;;;;;5040136;28;20056;-52
2022/02/28 00:14:32;;;;;;;2.67;2.47;;;;;;;;;;5041327;28;20252;-49
2022/02/28 00:16:57;;;;;;;2.28;2.08;;;;;;;;;;5041796;28;20509;-45
2022/02/28 00:19:22;;;;;;;3.27;2.97;;;;;;;;;;5055711;28;20112;-48
2022/02/28 00:21:48;;;;;;;4.47;3.33;;;;;;;;;;5053960;28;20275;-51
2022/02/28 00:24:14;;;;;;;3.58;2.78;;;;;;;;;;5051789;28;20040;-45
2022/02/28 00:26:39;;;;;;;4.88;3.25;;;;;;;;;;5052844;28;20025;-50
2022/02/28 00:29:04;;;;;;;3.58;2.55;;;;;;;;;;5049274;28;20036;-50
2022/02/28 00:31:30;;;;;;;4.73;3.13;;;;;;;;;;5051591;28;20043;-52
2022/02/28 00:33:55;;;;;;;3.40;2.80;;;;;;;;;;5069491;28;20283;-49
2022/02/28 00:36:20;;;;;;;3.25;2.80;;;;;;;;;;5069795;28;20033;-48
2022/02/28 00:38:45;;;;;;;3.65;3.15;;;;;;;;;;5065177;28;20044;-50
2022/02/28 00:41:10;;;;;;;3.00;2.72;;;;;;;;;;5042185;28;20071;-45
2022/02/28 00:43:36;;;;;;;4.15;3.05;;;;;;;;;;5048470;28;20025;-48
2022/02/28 00:46:01;;;;;;;2.88;2.38;;;;;;;;;;5053208;28;20013;-52
2022/02/28 00:48:26;;;;;;;3.00;2.70;;;;;;;;;;5064326;28;20393;-50
2022/02/28 00:50:52;;;;;;;2.58;2.22;;;;;;;;;;5070960;28;20029;-48
2022/02/28 00:53:17;;;;;;;3.88;2.97;;;;;;;;;;5046406;28;20013;-49
2022/02/28 00:55:42;;;;;;;2.78;2.55;;;;;;;;;;5045052;28;20082;-50
2022/02/28 00:58:07;;;;;;;4.00;2.55;;;;;;;;;;5052674;28;20051;-47
2022/02/28 01:00:33;;;;;;;2.50;2.30;;;;;;;;;;5052389;28;20021;-48
2022/02/28 01:02:58;;;;;;;2.53;2.28;;;;;;;;;;5052355;28;20037;-46
2022/02/28 01:05:24;;;;;;;2.75;2.45;;;;;;;;;;5052565;28;20436;-49
2022/02/28 01:07:49;;;;;;;2.90;2.38;;;;;;;;;;5052360;28;20044;-51
2022/02/28 01:10:16;;;;;;;3.55;2.70;;;;;;;;;;5051951;28;20037;-48
2022/02/28 01:12:42;;;;;;;2.85;2.65;;;;;;;;;;5055027;28;20029;-51
2022/02/28 01:15:08;;;;;;;4.07;3.67;;;;;;;;;;5055988;28;20120;-50
2022/02/28 01:17:34;;;;;;;3.58;3.22;;;;;;;;;;5053594;28;20049;-49
2022/02/28 01:19:59;;;;;;;2.47;2.27;;;;;;;;;;5057155;28;20025;-49
2022/02/28 01:22:24;;;;;;;3.20;2.85;;;;;;;;;;5051809;28;20669;-50
2022/02/28 01:24:50;;;;;;;2.67;2.45;;;;;;;;;;5050152;28;20029;-48
2022/02/28 01:27:15;;;;;;;4.35;3.10;;;;;;;;;;5046459;28;20032;-48
2022/02/28 01:29:40;;;;;;;3.65;2.85;;;;;;;;;;5069807;28;20024;-50
2022/02/28 01:32:05;;;;;;;3.08;2.67;;;;;;;;;;5062138;28;20055;-48
2022/02/28 01:34:31;;;;;;;4.07;2.10;;;;;;;;;;5067331;28;20033;-48
2022/02/28 01:36:56;;;;;;;2.85;2.60;;;;;;;;;;5071779;28;20052;-51
2022/02/28 01:39:21;;;;;;;3.10;2.63;;;;;;;;;;5053935;28;20111;-50
2022/02/28 01:41:46;;;;;;;3.08;2.78;;;;;;;;;;5051599;28;20025;-47
2022/02/28 01:44:12;;;;;;;3.50;2.85;;;;;;;;;;5059012;28;20021;-48
2022/02/28 01:46:37;;;;;;;2.33;2.13;;;;;;;;;;5052213;28;20057;-53
2022/02/28 01:49:03;;;;;;;3.35;2.85;;;;;;;;;;5051806;28;20033;-51
2022/02/28 01:51:28;;;;;;;2.33;2.13;;;;;;;;;;5051700;28;20025;-48
2022/02/28 01:53:53;;;;;;;2.88;2.50;;;;;;;;;;5042330;28;20093;-48
2022/02/28 01:56:19;;;;;;;3.17;2.88;;;;;;;;;;5040554;28;20437;-47
2022/02/28 01:58:44;;;;;;;4.68;3.42;;;;;;;;;;5048572;28;20028;-52
2022/02/28 02:01:10;;;;;;;3.03;2.67;;;;;;;;;;5054880;28;20428;-49
2022/02/28 02:03:35;;;;;;;3.15;2.95;;;;;;;;;;5034905;28;20041;-49
2022/02/28 02:06:00;;;;;;;2.65;2.45;;;;;;;;;;5051373;28;20028;-50
2022/02/28 02:08:26;;;;;;;4.22;2.72;;;;;;;;;;5058094;28;20016;-50
2022/02/28 02:10:51;;;;;;;5.22;2.70;;;;;;;;;;5071497;28;20083;-50
2022/02/28 02:13:17;;;;;;;2.67;2.47;;;;;;;;;;5064543;28;20024;-46
2022/02/28 02:15:42;;;;;;;2.45;2.25;;;;;;;;;;5071304;28;20028;-48
2022/02/28 02:18:08;;;;;;;3.60;3.10;;;;;;;;;;5084124;28;20062;-49
2022/02/28 02:20:35;;;;;;;3.63;3.33;;;;;;;;;;5084908;28;20024;-48
2022/02/28 02:23:01;;;;;;;2.53;2.33;;;;;;;;;;5067982;28;20009;-48
2022/02/28 02:25:26;;;;;;;2.75;2.47;;;;;;;;;;5047879;28;20020;-48
2022/02/28 02:27:52;;;;;;;3.28;2.65;;;;;;;;;;5068584;28;20036;-48
2022/02/28 02:30:18;;;;;;;3.05;2.60;;;;;;;;;;5071561;28;20376;-51
2022/02/28 02:32:43;;;;;;;3.25;2.53;;;;;;;;;;5070951;28;20039;-48
2022/02/28 02:35:09;;;;;;;2.35;2.17;;;;;;;;;;5072685;28;20024;-51
2022/02/28 02:37:34;;;;;;;2.80;2.55;;;;;;;;;;5075875;28;20028;-51
2022/02/28 02:39:59;;;;;;;1.73;1.50;;;;;;;;;;5071844;28;20024;-51
2022/02/28 02:42:24;;;;;;;2.50;2.30;;;;;;;;;;5069238;28;20024;-52
2022/02/28 02:44:49;;;;;;;2.47;2.27;;;;;;;;;;5088537;28;20442;-50
2022/02/28 02:47:14;;;;;;;3.17;2.88;;;;;;;;;;5075972;28;20273;-49
2022/02/28 02:49:40;;;;;;;3.58;3.28;;;;;;;;;;5088185;28;20044;-50
2022/02/28 02:52:06;;;;;;;3.03;2.63;;;;;;;;;;5070776;28;20094;-47
2022/02/28 02:54:31;;;;;;;2.97;2.75;;;;;;;;;;5063687;28;20344;-50
2022/02/28 02:56:57;;;;;;;2.75;2.55;;;;;;;;;;5072265;28;20032;-50
2022/02/28 02:59:22;;;;;;;2.88;2.67;;;;;;;;;;5054367;28;20013;-49
2022/02/28 03:01:47;;;;;;;3.72;3.42;;;;;;;;;;5085882;28;20032;-51
2022/02/28 03:04:12;;;;;;;3.17;2.67;;;;;;;;;;5069378;28;20048;-47
2022/02/28 03:06:37;;;;;;;3.03;2.47;;;;;;;;;;5074595;28;20045;-50
2022/02/28 03:09:03;;;;;;;4.85;3.92;;;;;;;;;;5074821;28;20032;-50
2022/02/28 03:11:28;;;;;;;4.03;2.75;;;;;;;;;;5061905;28;20041;-52
2022/02/28 03:13:53;;;;;;;3.33;2.95;;;;;;;;;;5056361;28;20032;-51
2022/02/28 03:16:18;;;;;;;3.53;3.17;;;;;;;;;;5074821;28;20050;-50
2022/02/28 03:18:43;;;;;;;4.15;3.70;;;;;;;;;;5074361;28;20103;-51
2022/02/28 03:21:09;;;;;;;3.35;2.83;;;;;;;;;;5085959;28;20027;-50
2022/02/28 03:23:34;;;;;;;4.23;3.63;;;;;;;;;;5064492;28;20047;-51
2022/02/28 03:26:00;;;;;;;3.38;3.08;;;;;;;;;;5071911;28;20329;-48
2022/02/28 03:28:25;;;;;;;3.47;2.63;;;;;;;;;;5076895;28;20552;-50
2022/02/28 03:30:50;;;;;;;4.35;3.72;;;;;;;;;;5076707;28;20020;-52
2022/02/28 03:33:15;;;;;;;4.07;3.75;;;;;;;;;;5070872;28;20032;-48
2022/02/28 03:35:41;;;;;;;2.37;2.17;;;;;;;;;;5080620;28;20063;-48
2022/02/28 03:38:06;;;;;;;3.45;3.15;;;;;;;;;;5083602;28;20844;-49
2022/02/28 03:40:31;;;;;;;4.20;3.70;;;;;;;;;;5078913;28;20016;-52
2022/02/28 03:42:57;;;;;;;4.03;3.63;;;;;;;;;;5075462;28;20016;-52
2022/02/28 03:45:23;;;;;;;4.68;4.25;;;;;;;;;;5075844;28;20047;-49
2022/02/28 03:47:48;;;;;;;5.60;4.50;;;;;;;;;;5089835;28;20067;-50
2022/02/28 03:50:13;;;;;;;4.82;4.10;;;;;;;;;;5073150;28;20552;-51
2022/02/28 03:52:39;;;;;;;5.15;4.47;;;;;;;;;;5072578;28;20038;-52
2022/02/28 03:55:04;;;;;;;4.97;3.83;;;;;;;;;;5072680;28;20502;-51
2022/02/28 03:57:29;;;;;;;4.85;4.03;;;;;;;;;;5091922;28;20036;-50
2022/02/28 03:59:54;;;;;;;4.47;3.83;;;;;;;;;;5076791;28;20024;-52
2022/02/28 04:02:20;;;;;;;5.10;4.50;;;;;;;;;;5082344;28;20059;-51
2022/02/28 04:04:45;;;;;;;6.60;5.75;;;;;;;;;;5073564;28;20417;-50
2022/02/28 04:07:11;;;;;;;5.35;4.85;;;;;;;;;;5091589;28;20107;-52
2022/02/28 04:09:36;;;;;;;6.80;6.03;;;;;;;;;;5085256;28;20082;-50
2022/02/28 04:12:03;;;;;;;5.60;4.80;;;;;;;;;;5090562;28;20097;-51
2022/02/28 04:14:28;;;;;;;4.95;4.40;;;;;;;;;;5074362;28;20024;-49
2022/02/28 04:16:53;;;;;;;6.35;5.28;;;;;;;;;;5074591;28;20040;-50
2022/02/28 04:19:18;;;;;;;5.78;5.18;;;;;;;;;;5073432;28;20032;-52
2022/02/28 04:21:44;;;;;;;7.00;5.30;;;;;;;;;;5081539;28;20036;-49
2022/02/28 04:24:09;;;;;;;5.25;4.75;;;;;;;;;;5072541;28;20270;-52
2022/02/28 04:26:36;;;;;;;6.17;5.50;;;;;;;;;;5070902;28;20032;-52
2022/02/28 04:29:01;;;;;;;5.93;5.32;;;;;;;;;;5060413;28;20320;-49
2022/02/28 04:31:26;;;;;;;6.97;5.70;;;;;;;;;;5090228;28;20028;-52
2022/02/28 04:33:51;;;;;;;6.57;5.63;;;;;;;;;;5065199;28;20033;-46
2022/02/28 04:36:17;;;;;;;4.72;4.30;;;;;;;;;;5077605;28;20492;-51
2022/02/28 04:38:42;;;;;;;5.75;5.15;;;;;;;;;;5074176;28;20499;-51
2022/02/28 04:41:07;;;;;;;5.80;5.10;;;;;;;;;;5080484;28;20040;-47
2022/02/28 04:43:32;;;;;;;5.38;4.88;;;;;;;;;;5078523;28;20019;-49
2022/02/28 04:45:58;;;;;;;5.68;4.85;;;;;;;;;;5072564;28;20142;-51
2022/02/28 04:48:23;;;;;;;6.43;5.78;;;;;;;;;;5078073;28;20380;-49
2022/02/28 04:50:51;;;;;;;6.68;5.38;;;;;;;;;;5073138;28;20438;-52
2022/02/28 04:53:16;;;;;;;5.15;4.38;;;;;;;;;;5081113;28;20120;-50
2022/02/28 04:55:41;;;;;;;6.32;5.53;;;;;;;;;;5070077;28;20128;-47
2022/02/28 04:58:06;;;;;;;5.70;5.10;;;;;;;;;;5069776;28;20044;-51
2022/02/28 05:00:32;;;;;;;5.97;5.07;;;;;;;;;;5052936;28;20029;-49
2022/02/28 05:02:57;;;;;;;6.90;5.68;;;;;;;;;;5055407;28;20098;-51
2022/02/28 05:05:22;;;;;;;5.30;4.80;;;;;;;;;;5062968;28;20104;-51
2022/02/28 05:07:47;;;;;;;5.93;5.40;;;;;;;;;;5055168;28;20274;-51
2022/02/28 05:10:12;;;;;;;5.65;5.00;;;;;;;;;;5069673;28;20021;-53
2022/02/28 05:12:38;;;;;;;8.27;6.75;;;;;;;;;;5073546;28;20032;-49
2022/02/28 05:15:03;;;;;;;7.75;6.95;;;;;;;;;;5072058;28;20040;-52
2022/02/28 05:17:28;;;;;;;6.22;5.50;;;;;;;;;;5074228;28;20031;-51
2022/02/28 05:19:53;;;;;;;7.10;6.38;;;;;;;;;;5071838;28;20031;-53
2022/02/28 05:22:19;;;;;;;5.90;5.25;;;;;;;;;;5077628;28;20016;-52
2022/02/28 05:24:44;;;;;;;6.40;5.17;;;;;;;;;;5062458;28;20032;-49
2022/02/28 05:27:09;;;;;;;6.97;6.22;;;;;;;;;;5071912;28;20730;-50
2022/02/28 05:29:36;;;;;;;4.78;4.15;;;;;;;;;;5071996;28;20055;-51
2022/02/28 05:32:01;;;;;;;4.75;4.35;;;;;;;;;;5066996;28;20104;-50
2022/02/28 05:34:26;;;;;;;4.53;4.13;;;;;;;;;;5067768;28;20063;-52
2022/02/28 05:36:51;;;;;;;6.30;5.70;;;;;;;;;;5086975;28;20060;-51
2022/02/28 05:39:17;;;;;;;6.68;5.57;;;;;;;;;;5083746;28;20081;-48
2022/02/28 05:41:42;;;;;;;5.00;4.50;;;;;;;;;;5065932;28;20032;-51
2022/02/28 05:44:07;;;;;;;5.80;5.03;;;;;;;;;;5077692;28;20070;-50
2022/02/28 05:46:32;;;;;;;7.22;6.20;;;;;;;;;;5069170;28;20025;-48
2022/02/28 05:48:58;;;;;;;5.50;4.97;;;;;;;;;;5066641;28;20123;-50
2022/02/28 05:51:25;;;;;;;5.97;4.55;;;;;;;;;;5071342;28;20032;-46
2022/02/28 05:53:50;;;;;;;4.75;4.28;;;;;;;;;;5069704;28;20405;-50
2022/02/28 05:56:15;;;;;;;7.60;5.70;;;;;;;;;;5064092;28;20032;-51
2022/02/28 05:58:41;;;;;;;6.03;5.18;;;;;;;;;;5065675;28;20402;-50
2022/02/28 06:01:06;;;;;;;5.63;4.90;;;;;;;;;;5073128;28;20066;-49
2022/02/28 06:03:31;;;;;;;8.02;4.78;;;;;;;;;;5057298;28;20295;-49
2022/02/28 06:05:56;;;;;;;6.22;5.43;;;;;;;;;;5074957;28;20024;-49
2022/02/28 06:08:22;;;;;;;7.45;5.82;;;;;;;;;;5073272;28;20063;-47
2022/02/28 06:10:47;;;;;;;8.30;5.38;;;;;;;;;;5071888;28;20111;-50
2022/02/28 06:13:13;;;;;;;8.10;5.30;;;;;;;;;;5069950;28;20032;-51
2022/02/28 06:15:41;;;;;;;5.90;4.40;;;;;;;;;;5070042;28;20020;-49
2022/02/28 06:18:07;;;;;;;5.63;4.80;;;;;;;;;;5070552;28;20079;-52
2022/02/28 06:20:32;;;;;;;9.27;5.95;;;;;;;;;;5071008;28;20412;-48
2022/02/28 06:22:57;;;;;;;8.43;5.13;;;;;;;;;;5048231;28;20021;-48
2022/02/28 06:25:22;;;;;;;8.55;5.40;;;;;;;;;;5069656;28;20020;-51
2022/02/28 06:27:47;;;;;;;6.45;4.88;;;;;;;;;;5068335;28;20032;-49
2022/02/28 06:30:14;;;;;;;5.70;4.50;;;;;;;;;;5062839;28;20028;-49
2022/02/28 06:32:39;;;;;;;5.78;3.42;;;;;;;;;;5063274;28;20505;-50
2022/02/28 06:35:05;;;;;;;6.68;3.85;;;;;;;;;;5073440;28;20032;-51
2022/02/28 06:37:30;;;;;;;6.82;4.15;;;;;;;;;;5074868;28;20036;-51
2022/02/28 06:39:55;;;;;;;6.38;4.43;;;;;;;;;;5074632;28;20013;-49
2022/02/28 06:42:21;;;;;;;4.30;3.90;;;;;;;;;;5055820;28;20055;-50
2022/02/28 06:44:46;;;;;;;6.50;5.15;;;;;;;;;;5060848;28;20046;-49
2022/02/28 06:47:11;;;;;;;6.53;5.38;;;;;;;;;;5084256;28;20048;-49
2022/02/28 06:49:36;;;;;;;5.43;4.57;;;;;;;;;;5070394;28;20020;-50
2022/02/28 06:52:02;;;;;;;7.18;5.53;;;;;;;;;;5074527;28;20033;-49
2022/02/28 06:54:27;;;;;;;8.77;5.85;;;;;;;;;;5065395;28;20420;-51
2022/02/28 06:56:52;;;;;;;8.07;5.47;;;;;;;;;;5097930;28;20042;-49
2022/02/28 06:59:17;;;;;;;7.88;5.68;;;;;;;;;;5074546;28;20016;-51
2022/02/28 07:01:42;;;;;;;8.70;6.67;;;;;;;;;;5073380;28;20024;-51
2022/02/28 07:04:08;;;;;;;10.57;7.40;;;;;;;;;;5084788;28;20781;-50
2022/02/28 07:06:34;;;;;;;8.95;7.35;;;;;;;;;;5072014;28;20028;-50
2022/02/28 07:08:59;;;;;;;8.48;7.32;;;;;;;;;;5081390;28;20074;-49
2022/02/28 07:11:24;;;;;;;8.07;6.78;;;;;;;;;;5068040;28;20459;-49
2022/02/28 07:13:50;;;;;;;10.13;8.35;;;;;;;;;;5077601;28;20041;-52
2022/02/28 07:16:15;;;;;;;7.53;6.68;;;;;;;;;;5073955;28;20047;-51
2022/02/28 07:18:41;;;;;;;9.23;7.15;;;;;;;;;;5063093;28;20056;-49
2022/02/28 07:21:06;;;;;;;9.18;7.28;;;;;;;;;;5075366;28;20055;-51
2022/02/28 07:23:31;;;;;;;7.45;6.47;;;;;;;;;;5071803;28;20023;-49
2022/02/28 07:25:56;;;;;;;8.35;6.22;;;;;;;;;;5053886;28;20066;-47
2022/02/28 07:28:22;;;;;;;8.30;7.30;;;;;;;;;;5069096;28;20035;-51
2022/02/28 07:30:47;;;;;;;10.27;8.23;;;;;;;;;;5067939;28;20032;-49
2022/02/28 07:33:12;;;;;;;8.52;6.75;;;;;;;;;;5075363;28;20036;-47
2022/02/28 07:35:37;;;;;;;4.22;3.83;;;;;;;;;;5073890;28;20024;-51
2022/02/28 07:38:03;;;;;;;9.30;8.13;;;;;;;;;;5072414;28;20535;-49
2022/02/28 07:40:28;;;;;;;8.15;6.93;;;;;;;;;;5061777;28;20438;-50
2022/02/28 07:42:53;;;;;;;10.32;7.88;;;;;;;;;;5074012;28;20024;-49
2022/02/28 07:45:21;;;;;;;10.10;7.95;;;;;;;;;;5056473;28;20544;-51
2022/02/28 07:47:46;;;;;;;8.50;6.63;;;;;;;;;;5060387;28;20029;-51
2022/02/28 07:50:11;;;;;;;10.60;8.48;;;;;;;;;;5073926;28;20533;-52
2022/02/28 07:52:37;;;;;;;8.65;6.82;;;;;;;;;;5071729;28;20466;-51
2022/02/28 07:55:02;;;;;;;10.40;7.22;;;;;;;;;;5046136;28;20055;-49
2022/02/28 07:57:27;;;;;;;7.75;6.43;;;;;;;;;;5066472;28;20029;-49
2022/02/28 07:59:53;;;;;;;9.85;8.20;;;;;;;;;;5069847;28;20377;-53
2022/02/28 08:02:18;;;;;;;7.15;6.45;;;;;;;;;;5080595;28;20016;-47
2022/02/28 08:04:43;;;;;;;8.77;7.38;;;;;;;;;;5094240;28;20123;-53
2022/02/28 08:07:08;;;;;;;9.30;7.80;;;;;;;;;;5083476;28;20024;-51
2022/02/28 08:09:34;;;;;;;8.75;7.85;;;;;;;;;;5073770;28;20033;-50
2022/02/28 08:11:59;;;;;;;9.75;8.52;;;;;;;;;;5064652;28;20042;-47
2022/02/28 08:14:25;;;;;;;8.73;7.05;;;;;;;;;;5073682;28;20032;-52
2022/02/28 08:16:50;;;;;;;9.48;7.57;;;;;;;;;;5073799;28;20056;-51
2022/02/28 08:19:16;;;;;;;7.60;6.68;;;;;;;;;;5064127;28;20373;-53
2022/02/28 08:21:41;;;;;;;7.38;6.68;;;;;;;;;;5071239;28;20026;-52
2022/02/28 08:24:06;;;;;;;8.90;7.47;;;;;;;;;;5070130;28;20050;-51
2022/02/28 08:26:32;;;;;;;8.68;7.47;;;;;;;;;;5077685;28;20085;-53
2022/02/28 08:28:57;;;;;;;9.45;7.25;;;;;;;;;;5071800;28;20013;-50
2022/02/28 08:31:22;;;;;;;6.50;5.82;;;;;;;;;;5055716;28;20028;-50
2022/02/28 08:33:47;;;;;;;7.07;6.38;;;;;;;;;;5085612;28;20024;-51
2022/02/28 08:36:12;;;;;;;9.43;7.28;;;;;;;;;;5072927;28;20401;-48
2022/02/28 08:38:38;;;;;;;8.60;7.00;;;;;;;;;;5059404;28;20043;-50
2022/02/28 08:41:03;;;;;;;8.98;7.38;;;;;;;;;;5062172;28;20112;-50
2022/02/28 08:43:28;;;;;;;6.60;5.90;;;;;;;;;;5086472;28;20031;-48
2022/02/28 08:45:54;;;;;;;6.82;6.13;;;;;;;;;;5069790;28;20028;-51
2022/02/28 08:48:19;;;;;;;7.97;7.00;;;;;;;;;;5080626;28;20028;-48
2022/02/28 08:50:44;;;;;;;6.68;5.97;;;;;;;;;;5050808;28;20040;-53
2022/02/28 08:53:09;;;;;;;6.93;6.22;;;;;;;;;;5057590;28;20036;-49
2022/02/28 08:55:34;;;;;;;6.13;5.53;;;;;;;;;;5062579;28;20024;-49
2022/02/28 08:58:00;;;;;;;7.20;6.35;;;;;;;;;;5073550;28;20023;-51
2022/02/28 09:00:25;;;;;;;6.43;5.55;;;;;;;;;;5054240;28;20385;-51
2022/02/28 09:02:50;;;;;;;7.10;6.35;;;;;;;;;;5059788;28;20489;-48
2022/02/28 09:05:15;;;;;;;6.70;6.00;;;;;;;;;;5072586;28;20135;-51
2022/02/28 09:07:41;;;;;;;7.47;6.35;;;;;;;;;;5034538;28;20298;-52
2022/02/28 09:10:06;;;;;;;7.03;5.75;;;;;;;;;;5071132;28;20064;-51
2022/02/28 09:12:32;;;;;;;6.53;5.15;;;;;;;;;;5065262;28;20028;-51
2022/02/28 09:14:57;;;;;;;4.85;4.28;;;;;;;;;;5053770;28;20032;-48
2022/02/28 09:17:22;;;;;;;5.05;4.55;;;;;;;;;;5072280;28;20024;-46
2022/02/28 09:19:48;;;;;;;6.20;5.60;;;;;;;;;;5079296;28;20008;-47
2022/02/28 09:22:13;;;;;;;4.45;3.97;;;;;;;;;;5072036;28;20033;-49
2022/02/28 09:24:38;;;;;;;4.95;4.50;;;;;;;;;;5046182;28;20024;-49
2022/02/28 09:27:04;;;;;;;4.40;3.95;;;;;;;;;;5070373;28;20028;-48
2022/02/28 09:29:29;;;;;;;5.13;4.35;;;;;;;;;;5072353;28;20024;-49
2022/02/28 09:31:55;;;;;;;4.78;4.05;;;;;;;;;;5070561;28;20525;-49
2022/02/28 09:34:20;;;;;;;7.88;5.00;;;;;;;;;;5071475;28;20029;-48
2022/02/28 09:36:45;;;;;;;4.60;4.18;;;;;;;;;;5089659;28;20531;-50
2022/02/28 09:39:11;;;;;;;4.63;3.70;;;;;;;;;;5091506;28;20441;-50
2022/02/28 09:41:36;;;;;;;4.40;4.00;;;;;;;;;;5074200;28;20074;-50
2022/02/28 09:44:01;;;;;;;4.45;3.60;;;;;;;;;;5072490;28;20020;-49
2022/02/28 09:46:28;;;;;;;4.93;4.03;;;;;;;;;;5075001;28;20495;-50
2022/02/28 09:48:53;;;;;;;4.90;4.40;;;;;;;;;;5077665;28;20017;-50
2022/02/28 09:51:18;;;;;;;4.57;4.10;;;;;;;;;;5044326;28;20036;-47
2022/02/28 09:53:43;;;;;;;5.75;4.50;;;;;;;;;;5067162;28;20025;-49
2022/02/28 09:56:09;;;;;;;3.60;3.08;;;;;;;;;;5062608;28;20074;-49
2022/02/28 09:58:35;;;;;;;5.00;3.42;;;;;;;;;;5064937;28;20023;-52
2022/02/28 10:01:00;;;;;;;4.53;3.40;;;;;;;;;;5085025;28;20028;-49
2022/02/28 10:03:29;;;;;;;3.15;2.85;;;;;;;;;;5077268;28;20050;-51
2022/02/28 10:06:01;;;;;;;6.00;3.67;;;;;;;;;;5031427;28;20021;-51
2022/02/28 10:08:47;;;;;;;4.25;3.22;;;;;;;;;;5019840;28;20363;-49
2022/02/28 10:11:25;;;;;;;3.50;3.20;;;;;;;;;;5022541;28;20045;-50
2022/02/28 10:13:56;;;;;;;4.15;3.47;;;;;;;;;;5018736;28;20513;-48
2022/02/28 10:16:30;;;;;;;3.67;2.80;;;;;;;;;;5012817;28;20030;-52
2022/02/28 10:18:55;;;;;;;2.47;2.13;;;;;;;;;;5020911;28;20072;-52
2022/02/28 10:21:39;;;;;;;3.05;2.72;;;;;;;;;;5049943;28;20029;-48
2022/02/28 10:24:07;;;;;;;5.50;2.83;;;;;;;;;;5027852;28;20036;-53
2022/02/28 10:26:43;;;;;;;2.65;2.25;;;;;;;;;;5024493;28;20030;-54
2022/02/28 10:29:09;;;;;;;3.00;2.70;;;;;;;;;;5027152;28;20084;-50
2022/02/28 10:31:39;;;;;;;6.65;2.80;;;;;;;;;;5013313;28;20048;-52
2022/02/28 10:34:14;;;;;;;3.92;2.75;;;;;;;;;;5024645;28;20013;-50
2022/02/28 10:36:39;;;;;;;3.00;2.40;;;;;;;;;;5042279;28;20406;-53
2022/02/28 10:39:10;;;;;;;4.18;2.28;;;;;;;;;;5019480;28;20026;-54
2022/02/28 10:41:36;;;;;;;3.47;2.47;;;;;;;;;;5012227;28;20034;-50
2022/02/28 10:44:02;;;;;;;2.25;2.08;;;;;;;;;;5019856;28;20017;-52
2022/02/28 10:46:30;;;;;;;2.85;2.30;;;;;;;;;;5038526;28;20061;-52
2022/02/28 10:48:58;;;;;;;2.75;2.53;;;;;;;;;;5014422;28;20022;-51
2022/02/28 10:51:23;;;;;;;2.88;2.25;;;;;;;;;;5022497;28;20052;-50
2022/02/28 10:54:05;;;;;;;2.63;2.20;;;;;;;;;;5023956;28;20021;-49
2022/02/28 10:56:42;;;;;;;2.30;2.10;;;;;;;;;;5024243;28;20086;-49
2022/02/28 10:59:07;;;;;;;2.38;2.10;;;;;;;;;;5030681;28;20064;-51
2022/02/28 11:01:42;;;;;;;2.50;2.10;;;;;;;;;;5019574;28;20144;-52
2022/02/28 11:04:08;;;;;;;3.72;2.47;;;;;;;;;;5024512;28;20284;-51
2022/02/28 11:06:34;;;;;;;2.03;1.83;;;;;;;;;;5030919;28;20352;-52
2022/02/28 11:08:59;;;;;;;2.50;1.83;;;;;;;;;;5030989;28;20147;-51
2022/02/28 11:11:25;;;;;;;2.70;1.77;;;;;;;;;;5030065;28;20577;-56
2022/02/28 11:13:51;;;;;;;3.13;1.85;;;;;;;;;;5030934;28;20028;-52
2022/02/28 11:16:16;;;;;;;2.83;1.75;;;;;;;;;;5015524;28;20025;-53
2022/02/28 11:18:42;;;;;;;2.17;1.83;;;;;;;;;;5046829;28;20029;-52
2022/02/28 11:21:07;;;;;;;2.65;1.65;;;;;;;;;;5048820;28;20479;-51
2022/02/28 11:23:39;;;;;;;2.20;1.85;;;;;;;;;;5021217;28;20150;-53
2022/02/28 11:26:05;;;;;;;1.50;1.40;;;;;;;;;;5026723;28;20528;-51
2022/02/28 11:28:30;;;;;;;1.17;1.08;;;;;;;;;;5039890;28;20025;-51
2022/02/28 11:31:03;;;;;;;2.45;1.25;;;;;;;;;;5053795;28;20115;-48
2022/02/28 11:33:28;;;;;;;1.25;1.10;;;;;;;;;;5031501;28;20033;-50
2022/02/28 11:35:53;;;;;;;1.80;1.35;;;;;;;;;;5037358;28;20067;-48
2022/02/28 11:38:18;;;;;;;3.80;1.38;;;;;;;;;;5053712;28;20064;-50
2022/02/28 11:40:45;;;;;;;1.60;1.25;;;;;;;;;;5047529;28;20385;-51
2022/02/28 11:43:14;;;;;;;1.83;1.40;;;;;;;;;;5025486;28;20030;-51
2022/02/28 11:45:50;;;;;;;1.30;1.08;;;;;;;;;;5014556;28;20382;-50
2022/02/28 11:48:25;;;;;;;1.85;1.02;;;;;;;;;;5044701;28;20021;-51
2022/02/28 11:50:50;;;;;;;;;;;;;;;;;;5047090;28;20071;-50
2022/02/28 11:53:34;;;;;;;1.77;0.75;;;;;;;;;;5035380;28;19908;-52
2022/02/28 11:56:00;;;;;;;1.47;0.80;;;;;;;;;;5030736;28;20536;-49
2022/02/28 11:58:28;;;;;;;1.88;0.90;;;;;;;;;;5031207;28;20105;-53
2022/02/28 12:01:22;;;;;;;1.63;0.98;;;;;;;;;;5036377;28;20017;-53
2022/02/28 12:03:49;;;;;;;1.55;0.80;;;;;;;;;;5013622;28;20049;-53
2022/02/28 12:06:37;;;;;;;4.38;0.93;;;;;;;;;;5054089;28;20055;-50
2022/02/28 12:09:02;;;;;;;1.80;1.30;;;;;;;;;;5038057;28;20167;-49
2022/02/28 12:11:30;;;;;;;3.90;0.80;;;;;;;;;;5053042;28;20043;-53
2022/02/28 12:13:59;;;;;;;2.05;0.80;;;;;;;;;;5053038;28;20550;-52
2022/02/28 12:19:33;;;;;;;1.10;0.80;;;;;;;;;;5049745;28;20079;-52
2022/02/28 12:22:02;;;;;;;1.80;0.93;;;;;;;;;;5033039;28;20482;-51
2022/02/28 12:24:45;;;;;;;1.20;0.70;;;;;;;;;;5041748;28;20017;-51
2022/02/28 12:27:12;;;;;;;1.45;1.15;;;;;;;;;;5052301;28;20033;-53
2022/02/28 12:29:37;;;;;;;1.00;0.60;;;;;;;;;;5048423;28;20500;-48
2022/02/28 12:32:02;;;;;;;1.70;0.70;;;;;;;;;;5034209;28;20033;-54
2022/02/28 12:34:34;;;;;;;2.15;0.85;;;;;;;;;;5052842;28;20433;-54
2022/02/28 12:37:00;;;;;;;1.75;0.60;;;;;;;;;;5053117;28;20043;-54
2022/02/28 12:39:25;;;;;;;1.88;0.90;;;;;;;;;;5065636;28;20025;-51
2022/02/28 12:41:55;;;;;;;1.67;0.70;;;;;;;;;;5053613;28;20032;-52
2022/02/28 12:44:20;;;;;;;1.23;0.70;;;;;;;;;;5052045;28;20020;-50
2022/02/28 12:46:47;;;;;;;1.33;0.50;;;;;;;;;;5051833;28;20123;-49
2022/02/28 12:49:14;;;;;;;1.17;0.60;;;;;;;;;;5062878;28;20021;-49
2022/02/28 12:51:40;;;;;;;1.20;0.80;;;;;;;;;;5057113;28;20036;-48
2022/02/28 12:54:20;;;;;;;1.65;0.50;;;;;;;;;;5045160;28;20401;-51
2022/02/28 12:56:54;;;;;;;1.30;0.55;;;;;;;;;;5038345;28;20037;-53
2022/02/28 12:59:19;;;;;;;1.98;0.77;;;;;;;;;;5050282;28;20108;-52
2022/02/28 13:01:45;;;;;;;0.63;0.55;;;;;;;;;;5051779;28;20444;-48
2022/02/28 13:04:11;;;;;;;2.38;1.10;;;;;;;;;;5054376;28;20040;-54
2022/02/28 13:06:37;;;;;;;2.17;0.60;;;;;;;;;;5051943;28;20021;-49
2022/02/28 13:09:12;;;;;;;0.98;0.63;;;;;;;;;;5052096;28;20017;-52
2022/02/28 13:11:45;;;;;;;2.67;0.70;;;;;;;;;;5052772;28;20063;-60
2022/02/28 13:14:10;;;;;;;0.80;0.60;;;;;;;;;;5052429;28;20454;-59
2022/02/28 13:16:37;;;;;;;0.98;0.50;;;;;;;;;;5055189;28;20017;-53
2022/02/28 13:19:14;;;;;;;1.33;0.55;;;;;;;;;;5034762;28;20025;-57
2022/02/28 13:21:49;;;;;;;2.10;0.70;;;;;;;;;;5047448;28;20017;-58
2022/02/28 13:24:20;;;;;;;2.63;0.57;;;;;;;;;;5039234;28;20020;-58
2022/02/28 13:26:45;;;;;;;0.60;0.30;;;;;;;;;;5051728;28;20040;-58
2022/02/28 13:29:14;;;;;;;1.25;0.50;;;;;;;;;;5049988;28;20021;-55
2022/02/28 13:31:41;;;;;;;1.00;0.70;;;;;;;;;;5052130;28;20389;-56
2022/02/28 13:34:07;;;;;;;2.40;0.90;;;;;;;;;;5064547;28;20464;-54
2022/02/28 13:36:59;;;;;;;2.70;1.15;;;;;;;;;;5045641;28;20024;-53
2022/02/28 13:39:30;;;;;;;1.50;1.10;;;;;;;;;;5049688;28;20037;-56
2022/02/28 13:41:57;;;;;;;0.90;0.70;;;;;;;;;;5043871;28;20021;-55
2022/02/28 13:44:25;;;;;;;1.95;1.27;;;;;;;;;;5043471;28;20053;-58
2022/02/28 13:46:52;;;;;;;0.95;0.40;;;;;;;;;;5043978;28;20025;-54
2022/02/28 13:49:17;;;;;;;0.65;0.63;;;;;;;;;;5034827;28;20102;-56
2022/02/28 13:51:43;;;;;;;2.45;0.60;;;;;;;;;;5046082;28;20056;-55
2022/02/28 13:54:09;;;;;;;3.17;1.58;;;;;;;;;;5053145;28;20028;-59
2022/02/28 13:56:34;;;;;;;11.70;7.47;;;;;;;;;;5064728;28;20032;-59
2022/02/28 13:59:10;;;;;;;28.45;20.08;;;;;;;;;;5071544;28;20095;-59
2022/02/28 14:01:36;;;;;;;46.53;31.83;;;;;;;;;;5052315;28;20393;-59
2022/02/28 14:04:03;;;;;;;42.35;30.60;;;;;;;;;;5057785;28;20094;-59
2022/02/28 14:06:28;;;;;;;52.58;37.88;;;;;;;;;;5051617;28;20141;-59
2022/02/28 14:08:54;;;;;;;57.40;42.03;;;;;;;;;;5059115;28;20170;-54
2022/02/28 14:11:32;;;;;;;60.83;42.53;;;;;;;;;;5039300;28;20087;-55
2022/02/28 14:13:58;;;;;;;69.95;48.65;;;;;;;;;;5048809;28;20029;-55
2022/02/28 14:16:24;;;;;;;71.50;51.35;;;;;;;;;;5062411;28;20017;-56
2022/02/28 14:18:59;;;;;;;76.22;55.47;;;;;;;;;;5053007;28;20435;-57
2022/02/28 14:21:27;;;;;;;80.53;58.22;;;;;;;;;;5053698;28;20580;-56
2022/02/28 14:23:52;;;;;;;86.45;61.30;;;;;;;;;;5044532;28;20551;-54
2022/02/28 14:26:17;;;;;;;85.38;60.65;;;;;;;;;;5051607;28;20044;-55
2022/02/28 14:28:43;;;;;;;88.00;61.97;;;;;;;;;;5050144;28;20643;-56
2022/02/28 14:31:09;;;;;;;81.13;56.85;;;;;;;;;;5033411;28;20035;-53
2022/02/28 14:33:50;;;;;;;87.57;61.83;;;;;;;;;;5050138;28;20501;-53
2022/02/28 14:36:15;;;;;;;87.35;62.33;;;;;;;;;;5050994;28;20098;-55
2022/02/28 14:38:41;;;;;;;87.07;61.20;;;;;;;;;;5051031;28;20057;-55
2022/02/28 14:41:10;;;;;;;81.78;58.05;;;;;;;;;;5045284;28;20017;-56